Time;durP1;ratioP1;P1;durP2;ratioP2;P2;SDS_P1;SDS_P2;PMS_P1;PMS_P2;Temp;Humidity;BMP_temperature;BMP_pressure;BME280_temperature;BME280_humidity;BME280_pressure;Samples;Min_cycle;Max_cycle;Signal;HPM_P1;HPM_P2
2021/11/28 00:01:13;;;;;;;15.63;9.45;;;;;;;;;;5049340;28;20055;-65
2021/11/28 00:03:39;;;;;;;15.87;8.73;;;;;;;;;;5053093;28;20296;-65
2021/11/28 00:06:13;;;;;;;15.52;7.97;;;;;;;;;;5046001;28;20145;-65
2021/11/28 00:14:15;;;;;;;17.08;7.63;;;;;;;;;;4990226;28;20061;-66
2021/11/28 00:16:41;;;;;;;13.02;7.53;;;;;;;;;;4991909;28;20053;-66
2021/11/28 00:19:08;;;;;;;16.75;8.25;;;;;;;;;;5005145;28;20164;-65
2021/11/28 00:21:35;;;;;;;13.63;7.15;;;;;;;;;;4996275;28;20061;-66
2021/11/28 00:24:01;;;;;;;14.98;8.05;;;;;;;;;;5005170;28;21256;-66
2021/11/28 00:26:28;;;;;;;11.55;6.28;;;;;;;;;;5009217;28;20606;-66
2021/11/28 00:28:55;;;;;;;16.88;6.63;;;;;;;;;;4991193;28;20070;-66
2021/11/28 00:31:21;;;;;;;16.33;6.82;;;;;;;;;;5003440;28;20477;-65
2021/11/28 00:33:48;;;;;;;14.98;7.40;;;;;;;;;;4996917;28;20084;-65
2021/11/28 00:36:14;;;;;;;12.55;6.80;;;;;;;;;;5003395;28;20085;-66
2021/11/28 00:38:40;;;;;;;15.77;7.28;;;;;;;;;;4994839;28;20042;-66
2021/11/28 00:41:07;;;;;;;13.40;6.85;;;;;;;;;;5000234;28;20056;-66
2021/11/28 00:43:33;;;;;;;11.15;7.03;;;;;;;;;;4998661;28;20068;-66
2021/11/28 00:45:59;;;;;;;19.52;7.32;;;;;;;;;;5042273;28;20059;-66
2021/11/28 00:48:29;;;;;;;15.00;6.88;;;;;;;;;;5057759;28;20059;-64
2021/11/28 00:53:41;;;;;;;15.85;7.63;;;;;;;;;;5054165;28;20059;-65
2021/11/28 00:56:07;;;;;;;13.20;7.05;;;;;;;;;;5040204;28;20055;-65
2021/11/28 00:58:33;;;;;;;16.83;6.95;;;;;;;;;;5051195;28;20051;-65
2021/11/28 01:01:00;;;;;;;13.98;6.90;;;;;;;;;;5058553;28;20057;-66
2021/11/28 01:03:26;;;;;;;14.23;6.68;;;;;;;;;;5048721;28;20084;-66
2021/11/28 01:05:54;;;;;;;11.32;7.00;;;;;;;;;;5057013;28;20701;-66
2021/11/28 01:08:21;;;;;;;12.77;7.53;;;;;;;;;;5044498;28;20063;-66
2021/11/28 01:10:47;;;;;;;15.38;7.25;;;;;;;;;;5043638;28;20529;-66
2021/11/28 01:13:15;;;;;;;14.63;6.93;;;;;;;;;;5047679;28;20061;-66
2021/11/28 01:15:41;;;;;;;14.82;6.97;;;;;;;;;;5057906;28;20559;-66
2021/11/28 01:18:08;;;;;;;14.18;6.88;;;;;;;;;;5057626;28;20044;-66
2021/11/28 01:20:34;;;;;;;14.90;7.22;;;;;;;;;;5046584;28;20060;-65
2021/11/28 01:23:00;;;;;;;13.30;7.10;;;;;;;;;;5053282;28;20040;-65
2021/11/28 01:25:27;;;;;;;14.20;7.70;;;;;;;;;;5045812;28;20048;-65
2021/11/28 01:27:53;;;;;;;13.07;7.22;;;;;;;;;;5057716;28;20055;-65
2021/11/28 01:30:19;;;;;;;15.50;7.60;;;;;;;;;;5052092;28;20393;-64
2021/11/28 01:32:48;;;;;;;10.65;6.75;;;;;;;;;;5057894;28;20041;-64
2021/11/28 01:35:14;;;;;;;;;;;;;;;;;;5059303;28;20053;-64
2021/11/28 01:37:41;;;;;;;17.08;7.80;;;;;;;;;;5045059;28;19932;-65
2021/11/28 01:40:09;;;;;;;19.38;7.68;;;;;;;;;;5053126;28;20060;-65
2021/11/28 01:42:36;;;;;;;13.93;7.20;;;;;;;;;;5030033;28;20051;-65
2021/11/28 01:45:03;;;;;;;19.45;7.55;;;;;;;;;;5057545;28;20332;-65
2021/11/28 01:47:29;;;;;;;12.50;7.00;;;;;;;;;;5050359;28;20059;-65
2021/11/28 01:49:57;;;;;;;11.97;6.90;;;;;;;;;;5054713;28;20847;-65
2021/11/28 01:52:24;;;;;;;17.50;7.38;;;;;;;;;;5050081;28;22034;-65
2021/11/28 01:54:51;;;;;;;17.20;7.05;;;;;;;;;;5047898;28;20075;-66
2021/11/28 01:57:17;;;;;;;14.18;7.25;;;;;;;;;;5056647;28;20063;-66
2021/11/28 01:59:43;;;;;;;12.85;6.70;;;;;;;;;;5048307;28;20055;-66
2021/11/28 02:02:10;;;;;;;12.93;7.32;;;;;;;;;;5056416;28;20155;-66
2021/11/28 02:04:37;;;;;;;13.65;7.05;;;;;;;;;;5042369;28;20223;-66
2021/11/28 02:07:03;;;;;;;16.48;7.00;;;;;;;;;;5051189;28;20087;-66
2021/11/28 02:09:30;;;;;;;14.18;6.78;;;;;;;;;;5056457;28;20770;-66
2021/11/28 02:11:56;;;;;;;13.07;7.18;;;;;;;;;;5047671;28;20048;-66
2021/11/28 02:14:22;;;;;;;15.32;7.53;;;;;;;;;;5056305;28;20520;-66
2021/11/28 02:16:48;;;;;;;13.65;6.95;;;;;;;;;;5048001;28;20067;-66
2021/11/28 02:19:16;;;;;;;16.92;7.53;;;;;;;;;;5050907;28;20056;-65
2021/11/28 02:21:42;;;;;;;13.77;7.68;;;;;;;;;;5047345;28;20052;-65
2021/11/28 02:24:08;;;;;;;15.20;7.97;;;;;;;;;;5034670;28;20430;-65
2021/11/28 02:26:35;;;;;;;10.68;6.88;;;;;;;;;;5055808;28;20056;-65
2021/11/28 02:29:01;;;;;;;11.55;7.15;;;;;;;;;;5048375;28;20088;-65
2021/11/28 02:31:28;;;;;;;16.23;7.70;;;;;;;;;;5055742;28;20057;-65
2021/11/28 02:33:54;;;;;;;10.27;6.90;;;;;;;;;;5041098;28;20348;-66
2021/11/28 02:36:20;;;;;;;13.23;7.70;;;;;;;;;;5053835;28;20056;-66
2021/11/28 02:38:47;;;;;;;15.07;6.57;;;;;;;;;;5055933;28;20052;-66
2021/11/28 02:41:13;;;;;;;13.10;7.57;;;;;;;;;;5046245;28;20070;-66
2021/11/28 02:43:40;;;;;;;11.85;7.22;;;;;;;;;;5055757;28;20457;-66
2021/11/28 02:46:08;;;;;;;12.65;6.78;;;;;;;;;;5043301;28;20056;-66
2021/11/28 02:48:36;;;;;;;11.77;6.95;;;;;;;;;;5050779;28;20685;-66
2021/11/28 02:51:03;;;;;;;18.35;8.65;;;;;;;;;;5047315;28;20052;-66
2021/11/28 02:53:30;;;;;;;14.95;7.55;;;;;;;;;;5055879;28;20324;-66
2021/11/28 02:56:00;;;;;;;17.25;8.10;;;;;;;;;;5055442;28;20044;-66
2021/11/28 02:58:28;;;;;;;13.68;7.70;;;;;;;;;;5032898;28;20045;-66
2021/11/28 03:01:23;;;;;;;16.30;7.43;;;;;;;;;;5051176;28;20049;-66
2021/11/28 03:03:50;;;;;;;13.38;7.68;;;;;;;;;;5026438;28;20383;-66
2021/11/28 03:06:17;;;;;;;12.38;7.25;;;;;;;;;;5056313;28;20052;-67
2021/11/28 03:08:43;;;;;;;13.20;7.43;;;;;;;;;;5051391;28;20044;-66
2021/11/28 03:11:11;;;;;;;17.25;7.75;;;;;;;;;;5057435;28;20052;-66
2021/11/28 03:13:39;;;;;;;10.30;7.25;;;;;;;;;;5047115;28;20055;-66
2021/11/28 03:16:07;;;;;;;14.37;7.23;;;;;;;;;;5050234;28;20044;-66
2021/11/28 03:18:35;;;;;;;12.02;7.28;;;;;;;;;;5056459;28;20071;-66
2021/11/28 03:21:04;;;;;;;11.95;7.05;;;;;;;;;;5049986;28;20045;-66
2021/11/28 03:23:32;;;;;;;12.20;7.10;;;;;;;;;;5055689;28;20131;-66
2021/11/28 03:26:21;;;;;;;14.55;7.57;;;;;;;;;;5048178;28;20049;-66
2021/11/28 03:28:59;;;;;;;14.68;7.47;;;;;;;;;;5040628;28;20159;-66
2021/11/28 03:31:27;;;;;;;15.75;7.68;;;;;;;;;;5044648;28;20655;-66
2021/11/28 03:33:53;;;;;;;15.77;7.80;;;;;;;;;;5054558;28;20049;-66
2021/11/28 03:36:22;;;;;;;14.82;7.97;;;;;;;;;;5047062;28;20243;-66
2021/11/28 03:38:48;;;;;;;14.18;9.20;;;;;;;;;;5055756;28;20075;-66
2021/11/28 03:41:16;;;;;;;17.90;9.27;;;;;;;;;;5052728;28;21001;-66
2021/11/28 03:43:43;;;;;;;14.15;9.48;;;;;;;;;;5041117;28;20269;-65
2021/11/28 03:46:10;;;;;;;18.83;10.45;;;;;;;;;;5055512;28;20059;-66
2021/11/28 03:48:36;;;;;;;16.42;8.95;;;;;;;;;;5046243;28;20056;-66
2021/11/28 03:51:03;;;;;;;17.95;9.57;;;;;;;;;;5055440;28;20413;-65
2021/11/28 03:53:29;;;;;;;18.17;10.63;;;;;;;;;;5050481;28;20135;-65
2021/11/28 03:55:56;;;;;;;26.23;14.10;;;;;;;;;;5053151;28;20537;-66
2021/11/28 03:58:22;;;;;;;29.48;14.18;;;;;;;;;;5054217;28;20056;-66
2021/11/28 04:00:48;;;;;;;26.17;13.85;;;;;;;;;;5050110;28;20758;-66
2021/11/28 04:03:15;;;;;;;33.55;16.98;;;;;;;;;;5059296;28;20318;-66
2021/11/28 04:05:41;;;;;;;30.90;17.02;;;;;;;;;;5050006;28;20066;-66
2021/11/28 04:08:08;;;;;;;28.73;16.15;;;;;;;;;;5058071;28;20055;-66
2021/11/28 04:10:34;;;;;;;29.83;16.17;;;;;;;;;;5047177;28;20147;-66
2021/11/28 04:13:00;;;;;;;33.65;16.98;;;;;;;;;;5054070;28;20040;-66
2021/11/28 04:15:27;;;;;;;30.58;16.48;;;;;;;;;;5059086;28;20131;-66
2021/11/28 04:17:53;;;;;;;29.60;16.48;;;;;;;;;;5049227;28;20067;-66
2021/11/28 04:20:19;;;;;;;30.15;15.68;;;;;;;;;;5059028;28;20095;-66
2021/11/28 04:22:46;;;;;;;29.02;15.70;;;;;;;;;;5050845;28;20067;-65
2021/11/28 04:25:13;;;;;;;28.27;15.85;;;;;;;;;;5031839;28;20036;-66
2021/11/28 04:27:39;;;;;;;27.92;15.70;;;;;;;;;;5057871;28;20449;-66
2021/11/28 04:30:06;;;;;;;31.05;16.27;;;;;;;;;;5050151;28;20048;-66
2021/11/28 04:32:32;;;;;;;30.45;15.98;;;;;;;;;;5058820;28;20041;-66
2021/11/28 04:34:59;;;;;;;33.17;16.35;;;;;;;;;;5050741;28;20044;-66
2021/11/28 04:37:26;;;;;;;27.13;14.52;;;;;;;;;;5054213;28;20048;-66
2021/11/28 04:39:52;;;;;;;28.73;14.80;;;;;;;;;;5049277;28;20067;-66
2021/11/28 04:42:19;;;;;;;28.60;15.20;;;;;;;;;;5058367;28;20059;-65
2021/11/28 04:44:45;;;;;;;32.00;16.20;;;;;;;;;;5058175;28;20383;-66
2021/11/28 04:47:15;;;;;;;29.50;16.13;;;;;;;;;;5051021;28;21259;-66
2021/11/28 04:49:41;;;;;;;30.88;16.33;;;;;;;;;;5057488;28;20527;-65
2021/11/28 04:52:07;;;;;;;28.08;16.23;;;;;;;;;;5049460;28;20051;-66
2021/11/28 04:54:34;;;;;;;33.65;16.77;;;;;;;;;;5057601;28;20326;-66
2021/11/28 04:57:00;;;;;;;33.33;16.58;;;;;;;;;;5050565;28;20566;-66
2021/11/28 04:59:26;;;;;;;30.42;15.65;;;;;;;;;;5055649;28;20289;-66
2021/11/28 05:01:53;;;;;;;31.58;15.32;;;;;;;;;;5050678;28;20333;-66
2021/11/28 05:04:19;;;;;;;28.60;15.88;;;;;;;;;;5046843;28;20143;-66
2021/11/28 05:06:46;;;;;;;30.00;16.05;;;;;;;;;;5057388;28;20045;-66
2021/11/28 05:09:12;;;;;;;27.65;14.98;;;;;;;;;;5049760;28;20048;-66
2021/11/28 05:11:38;;;;;;;29.77;15.68;;;;;;;;;;5058042;28;20063;-65
2021/11/28 05:14:05;;;;;;;29.85;15.68;;;;;;;;;;5044927;28;20056;-65
2021/11/28 05:16:32;;;;;;;28.45;14.95;;;;;;;;;;5051900;28;20826;-66
2021/11/28 05:18:59;;;;;;;27.95;14.27;;;;;;;;;;5038450;28;20474;-66
2021/11/28 05:21:25;;;;;;;26.30;14.20;;;;;;;;;;5030939;28;20059;-66
2021/11/28 05:23:52;;;;;;;26.85;14.80;;;;;;;;;;5057701;28;20053;-66
2021/11/28 05:26:18;;;;;;;23.67;13.32;;;;;;;;;;5050294;28;20056;-66
2021/11/28 05:28:45;;;;;;;26.80;14.50;;;;;;;;;;5052484;28;20076;-66
2021/11/28 05:31:17;;;;;;;32.15;16.35;;;;;;;;;;5045328;28;20466;-66
2021/11/28 05:33:47;;;;;;;25.27;13.45;;;;;;;;;;5057930;28;20551;-66
2021/11/28 05:36:14;;;;;;;24.77;13.07;;;;;;;;;;5057895;28;20071;-66
2021/11/28 05:38:41;;;;;;;22.83;12.50;;;;;;;;;;5049375;28;20044;-66
2021/11/28 05:41:08;;;;;;;27.20;13.80;;;;;;;;;;5057487;28;20519;-66
2021/11/28 05:43:37;;;;;;;22.65;12.70;;;;;;;;;;5041666;28;20072;-65
2021/11/28 05:46:04;;;;;;;23.58;12.68;;;;;;;;;;5056223;28;20503;-66
2021/11/28 05:48:31;;;;;;;24.95;13.88;;;;;;;;;;5049927;28;20052;-65
2021/11/28 05:50:58;;;;;;;26.15;13.10;;;;;;;;;;5056357;28;20044;-65
2021/11/28 05:53:24;;;;;;;24.40;12.80;;;;;;;;;;5057120;28;20049;-65
2021/11/28 05:55:51;;;;;;;23.73;12.45;;;;;;;;;;5044239;28;20067;-66
2021/11/28 05:58:18;;;;;;;24.83;12.57;;;;;;;;;;5054175;28;20052;-66
2021/11/28 06:00:44;;;;;;;26.58;12.82;;;;;;;;;;5047964;28;20064;-67
2021/11/28 06:03:11;;;;;;;23.77;12.27;;;;;;;;;;5057268;28;20059;-66
2021/11/28 06:05:40;;;;;;;23.33;12.02;;;;;;;;;;5048183;28;20519;-66
2021/11/28 06:08:06;;;;;;;21.52;12.07;;;;;;;;;;5056251;28;20049;-66
2021/11/28 06:10:33;;;;;;;22.98;12.73;;;;;;;;;;5050051;28;20052;-66
2021/11/28 06:12:59;;;;;;;20.15;11.35;;;;;;;;;;5045718;28;20052;-66
2021/11/28 06:15:25;;;;;;;23.08;12.13;;;;;;;;;;5056713;28;20568;-66
2021/11/28 06:17:52;;;;;;;28.58;12.32;;;;;;;;;;5048295;28;20045;-66
2021/11/28 06:20:18;;;;;;;26.10;12.40;;;;;;;;;;5056726;28;20048;-66
2021/11/28 06:22:44;;;;;;;21.15;11.48;;;;;;;;;;5048209;28;20044;-66
2021/11/28 06:25:11;;;;;;;19.45;10.90;;;;;;;;;;5049720;28;20052;-66
2021/11/28 06:27:54;;;;;;;21.75;12.35;;;;;;;;;;5055668;28;20135;-66
2021/11/28 06:30:21;;;;;;;22.98;12.20;;;;;;;;;;5048737;28;20663;-66
2021/11/28 06:32:47;;;;;;;22.45;11.75;;;;;;;;;;5055644;28;20446;-66
2021/11/28 06:35:13;;;;;;;21.67;11.25;;;;;;;;;;5029377;28;20093;-66
2021/11/28 06:37:40;;;;;;;20.92;10.95;;;;;;;;;;5051890;28;20149;-66
2021/11/28 06:40:07;;;;;;;23.65;12.35;;;;;;;;;;5041848;28;20373;-67
2021/11/28 06:42:33;;;;;;;26.30;13.27;;;;;;;;;;5053873;28;20075;-67
2021/11/28 06:45:00;;;;;;;22.38;12.15;;;;;;;;;;5035406;28;20044;-67
2021/11/28 06:47:43;;;;;;;23.08;12.18;;;;;;;;;;5048477;28;20143;-67
2021/11/28 06:50:10;;;;;;;21.35;11.57;;;;;;;;;;5056434;28;20179;-67
2021/11/28 06:52:36;;;;;;;21.02;10.95;;;;;;;;;;5041618;28;20513;-67
2021/11/28 06:55:02;;;;;;;21.23;11.25;;;;;;;;;;5055096;28;20041;-67
2021/11/28 06:57:29;;;;;;;22.90;11.40;;;;;;;;;;5051509;28;20493;-67
2021/11/28 06:59:55;;;;;;;21.20;11.65;;;;;;;;;;5055605;28;20055;-67
2021/11/28 07:02:21;;;;;;;19.45;10.43;;;;;;;;;;5056144;28;20053;-67
2021/11/28 07:04:48;;;;;;;20.20;9.80;;;;;;;;;;5042040;28;20505;-67
2021/11/28 07:07:14;;;;;;;20.95;9.95;;;;;;;;;;5050975;28;20055;-69
2021/11/28 07:09:41;;;;;;;14.95;9.15;;;;;;;;;;5047588;28;20557;-67
2021/11/28 07:12:07;;;;;;;21.15;9.88;;;;;;;;;;5056472;28;20060;-67
2021/11/28 07:14:35;;;;;;;23.83;10.27;;;;;;;;;;5047869;28;20056;-67
2021/11/28 07:17:01;;;;;;;42.03;11.68;;;;;;;;;;5055823;28;20055;-67
2021/11/28 07:19:28;;;;;;;33.10;9.93;;;;;;;;;;5051396;28;20129;-67
2021/11/28 07:21:56;;;;;;;20.45;9.98;;;;;;;;;;5043153;28;20048;-67
2021/11/28 07:24:23;;;;;;;17.90;10.43;;;;;;;;;;5055893;28;20044;-67
2021/11/28 07:26:49;;;;;;;19.83;9.75;;;;;;;;;;5049771;28;20047;-67
2021/11/28 07:29:17;;;;;;;17.63;10.23;;;;;;;;;;5062961;28;20048;-67
2021/11/28 07:31:43;;;;;;;20.55;10.40;;;;;;;;;;5056390;28;20059;-67
2021/11/28 07:34:10;;;;;;;24.35;11.82;;;;;;;;;;5055184;28;20056;-67
2021/11/28 07:36:37;;;;;;;21.25;11.15;;;;;;;;;;5061347;28;20056;-67
2021/11/28 07:39:07;;;;;;;23.63;11.65;;;;;;;;;;5054697;28;20079;-67
2021/11/28 07:41:34;;;;;;;26.83;13.48;;;;;;;;;;5062607;28;20488;-67
2021/11/28 07:44:01;;;;;;;35.90;15.93;;;;;;;;;;5054988;28;20048;-67
2021/11/28 07:46:27;;;;;;;37.75;16.08;;;;;;;;;;5040253;28;20065;-67
2021/11/28 07:48:54;;;;;;;43.83;18.33;;;;;;;;;;5049319;28;20511;-67
2021/11/28 07:51:20;;;;;;;37.17;16.50;;;;;;;;;;5062455;28;20075;-67
2021/11/28 07:53:47;;;;;;;36.42;17.50;;;;;;;;;;5062105;28;20616;-67
2021/11/28 07:56:13;;;;;;;46.47;17.98;;;;;;;;;;5053328;28;20536;-67
2021/11/28 07:58:39;;;;;;;80.82;18.25;;;;;;;;;;5062404;28;20063;-67
2021/11/28 08:01:06;;;;;;;46.65;18.23;;;;;;;;;;5050283;28;20548;-67
2021/11/28 08:03:32;;;;;;;54.05;20.30;;;;;;;;;;5055780;28;20512;-67
2021/11/28 08:05:59;;;;;;;50.63;18.88;;;;;;;;;;5054449;28;20135;-67
2021/11/28 08:08:27;;;;;;;49.30;19.55;;;;;;;;;;5061929;28;20040;-67
2021/11/28 08:10:54;;;;;;;41.00;18.20;;;;;;;;;;5062065;28;20044;-67
2021/11/28 08:13:21;;;;;;;54.95;19.20;;;;;;;;;;5053350;28;20047;-67
2021/11/28 08:15:47;;;;;;;83.80;19.45;;;;;;;;;;5053672;28;20052;-67
2021/11/28 08:18:14;;;;;;;67.53;19.08;;;;;;;;;;5053723;28;20495;-67
2021/11/28 08:20:43;;;;;;;63.33;19.45;;;;;;;;;;5060830;28;20148;-67
2021/11/28 08:23:10;;;;;;;88.70;21.40;;;;;;;;;;5053572;28;20048;-67
2021/11/28 08:25:36;;;;;;;59.00;19.08;;;;;;;;;;5061976;28;20389;-67
2021/11/28 08:28:06;;;;;;;39.80;17.88;;;;;;;;;;5057046;28;20064;-67
2021/11/28 08:30:33;;;;;;;36.70;16.38;;;;;;;;;;5048757;28;20075;-67
2021/11/28 08:33:00;;;;;;;35.60;17.25;;;;;;;;;;5061914;28;20063;-67
2021/11/28 08:35:29;;;;;;;35.25;16.17;;;;;;;;;;5053812;28;20056;-67
2021/11/28 08:37:56;;;;;;;34.55;16.98;;;;;;;;;;5061562;28;20048;-67
2021/11/28 08:40:23;;;;;;;30.15;14.35;;;;;;;;;;5050295;28;20516;-67
2021/11/28 08:42:49;;;;;;;37.63;17.05;;;;;;;;;;5052588;28;20086;-67
2021/11/28 08:45:16;;;;;;;32.92;16.15;;;;;;;;;;5053755;28;20148;-67
2021/11/28 08:47:43;;;;;;;30.05;14.68;;;;;;;;;;5049617;28;20052;-67
2021/11/28 08:50:11;;;;;;;32.88;15.73;;;;;;;;;;5058392;28;20474;-66
2021/11/28 08:52:37;;;;;;;28.90;15.02;;;;;;;;;;5050363;28;20466;-66
2021/11/28 08:55:04;;;;;;;29.13;14.88;;;;;;;;;;5057176;28;20045;-66
2021/11/28 08:57:31;;;;;;;33.20;15.95;;;;;;;;;;5042688;28;20389;-67
2021/11/28 08:59:57;;;;;;;30.85;15.13;;;;;;;;;;5057523;28;20044;-66
2021/11/28 09:02:23;;;;;;;38.80;16.50;;;;;;;;;;5058683;28;20052;-67
2021/11/28 09:04:50;;;;;;;33.63;15.45;;;;;;;;;;5048023;28;20378;-66
2021/11/28 09:07:17;;;;;;;33.85;14.88;;;;;;;;;;5057639;28;20044;-66
2021/11/28 09:09:44;;;;;;;34.17;15.00;;;;;;;;;;5045493;28;20068;-66
2021/11/28 09:12:11;;;;;;;29.50;14.55;;;;;;;;;;5053165;28;20064;-66
2021/11/28 09:14:37;;;;;;;35.42;15.02;;;;;;;;;;5049059;28;20561;-66
2021/11/28 09:17:03;;;;;;;35.90;15.30;;;;;;;;;;5058201;28;20047;-66
2021/11/28 09:21:56;;;;;;;44.05;16.98;;;;;;;;;;5049505;28;20048;-66
2021/11/28 09:24:38;;;;;;;40.42;17.42;;;;;;;;;;5053705;28;20052;-66
2021/11/28 09:27:06;;;;;;;36.72;16.38;;;;;;;;;;5046445;28;20776;-66
2021/11/28 09:29:37;;;;;;;34.78;15.73;;;;;;;;;;5058129;28;20519;-66
2021/11/28 09:32:04;;;;;;;36.33;16.35;;;;;;;;;;5050026;28;20144;-66
2021/11/28 09:34:31;;;;;;;34.47;16.80;;;;;;;;;;5058006;28;20055;-66
2021/11/28 09:36:57;;;;;;;39.08;17.02;;;;;;;;;;5050415;28;20040;-66
2021/11/28 09:39:24;;;;;;;37.05;16.98;;;;;;;;;;5049908;28;20498;-66
2021/11/28 09:42:04;;;;;;;40.45;17.58;;;;;;;;;;5056819;28;20535;-66
2021/11/28 09:44:31;;;;;;;36.67;16.50;;;;;;;;;;5047774;28;20060;-66
2021/11/28 09:46:58;;;;;;;40.40;16.40;;;;;;;;;;5057256;28;20072;-66
2021/11/28 09:49:27;;;;;;;35.38;17.25;;;;;;;;;;5049298;28;20057;-66
2021/11/28 09:51:54;;;;;;;37.42;17.30;;;;;;;;;;5052101;28;20613;-66
2021/11/28 09:54:21;;;;;;;35.35;17.38;;;;;;;;;;5044185;28;20070;-66
2021/11/28 09:56:47;;;;;;;36.28;17.10;;;;;;;;;;5056263;28;20083;-66
2021/11/28 09:59:15;;;;;;;35.90;16.98;;;;;;;;;;5057050;28;20045;-66
2021/11/28 10:01:42;;;;;;;34.40;16.07;;;;;;;;;;5048434;28;20045;-66
2021/11/28 10:04:09;;;;;;;42.95;17.77;;;;;;;;;;5055668;28;20598;-66
2021/11/28 10:06:35;;;;;;;35.30;16.83;;;;;;;;;;5047071;28;20047;-66
2021/11/28 10:09:05;;;;;;;36.20;17.02;;;;;;;;;;5051592;28;20047;-65
2021/11/28 10:11:58;;;;;;;31.92;15.10;;;;;;;;;;5049565;28;20044;-66
2021/11/28 10:14:24;;;;;;;32.13;15.73;;;;;;;;;;5029110;28;20049;-66
2021/11/28 10:16:51;;;;;;;31.25;16.30;;;;;;;;;;5056374;28;20044;-66
2021/11/28 10:19:17;;;;;;;29.90;15.30;;;;;;;;;;5046127;28;20044;-67
2021/11/28 10:21:44;;;;;;;30.40;15.48;;;;;;;;;;5049135;28;20049;-67
2021/11/28 10:24:17;;;;;;;33.13;16.40;;;;;;;;;;5048291;28;20580;-67
2021/11/28 10:26:54;;;;;;;30.67;15.60;;;;;;;;;;5054066;28;20067;-67
2021/11/28 10:29:21;;;;;;;30.38;16.52;;;;;;;;;;5047181;28;20481;-67
2021/11/28 10:31:54;;;;;;;33.90;16.40;;;;;;;;;;5053561;28;20048;-66
2021/11/28 10:34:32;;;;;;;31.67;16.10;;;;;;;;;;5043008;28;20151;-66
2021/11/28 10:37:03;;;;;;;31.00;15.75;;;;;;;;;;5050589;28;20056;-66
2021/11/28 10:39:35;;;;;;;31.23;16.52;;;;;;;;;;5057469;28;20051;-68
2021/11/28 10:42:01;;;;;;;31.80;15.93;;;;;;;;;;5050232;28;20052;-67
2021/11/28 10:44:27;;;;;;;29.48;15.80;;;;;;;;;;5055005;28;20357;-67
2021/11/28 10:46:58;;;;;;;31.10;15.90;;;;;;;;;;5048161;28;20048;-67
2021/11/28 10:49:27;;;;;;;27.85;14.95;;;;;;;;;;5047894;28;20056;-67
2021/11/28 10:51:55;;;;;;;31.65;15.77;;;;;;;;;;5043969;28;20070;-67
2021/11/28 10:54:32;;;;;;;29.83;15.50;;;;;;;;;;5056195;28;20048;-66
2021/11/28 10:57:08;;;;;;;27.77;15.68;;;;;;;;;;5054949;28;20662;-67
2021/11/28 10:59:36;;;;;;;27.40;15.07;;;;;;;;;;5049511;28;20056;-66
2021/11/28 11:02:21;;;;;;;28.80;14.77;;;;;;;;;;5051983;28;20045;-67
2021/11/28 11:04:47;;;;;;;31.52;15.18;;;;;;;;;;5042060;28;20049;-67
2021/11/28 11:07:14;;;;;;;31.77;15.40;;;;;;;;;;5054350;28;20063;-67
2021/11/28 11:09:42;;;;;;;28.73;15.20;;;;;;;;;;5046906;28;20052;-67
2021/11/28 11:12:23;;;;;;;29.15;15.10;;;;;;;;;;5054317;28;20060;-67
2021/11/28 11:14:52;;;;;;;31.45;16.95;;;;;;;;;;5042649;28;20048;-66
2021/11/28 11:17:26;;;;;;;33.85;16.15;;;;;;;;;;5049420;28;20174;-67
2021/11/28 11:19:52;;;;;;;30.30;16.40;;;;;;;;;;5038283;28;20048;-67
2021/11/28 11:22:18;;;;;;;32.03;15.80;;;;;;;;;;5048952;28;20052;-66
2021/11/28 11:24:51;;;;;;;29.05;16.00;;;;;;;;;;5056018;28;20044;-67
2021/11/28 11:27:48;;;;;;;34.28;16.55;;;;;;;;;;5050836;28;20052;-67
2021/11/28 11:30:24;;;;;;;33.92;16.95;;;;;;;;;;5051253;28;20049;-66
2021/11/28 11:32:54;;;;;;;28.83;14.90;;;;;;;;;;5047613;28;20052;-67
2021/11/28 11:35:22;;;;;;;31.27;16.35;;;;;;;;;;5038028;28;20350;-66
2021/11/28 11:37:49;;;;;;;27.45;14.57;;;;;;;;;;5049165;28;20048;-66
2021/11/28 11:40:16;;;;;;;27.23;13.60;;;;;;;;;;5057088;28;20048;-66
2021/11/28 11:42:44;;;;;;;26.77;13.43;;;;;;;;;;5051774;28;20048;-66
2021/11/28 11:45:12;;;;;;;27.85;14.63;;;;;;;;;;5045002;28;20044;-65
2021/11/28 11:47:39;;;;;;;24.93;13.37;;;;;;;;;;5055646;28;20056;-66
2021/11/28 11:50:06;;;;;;;25.60;13.13;;;;;;;;;;5050117;28;20059;-65
2021/11/28 11:52:33;;;;;;;29.77;14.73;;;;;;;;;;5057659;28;20068;-66
2021/11/28 11:55:00;;;;;;;25.95;14.05;;;;;;;;;;5049914;28;20055;-65
2021/11/28 11:57:29;;;;;;;28.83;14.07;;;;;;;;;;5053385;28;20063;-65
2021/11/28 12:00:18;;;;;;;23.70;12.43;;;;;;;;;;5049216;28;20074;-66
2021/11/28 12:02:46;;;;;;;27.23;12.80;;;;;;;;;;5057088;28;20048;-65
2021/11/28 12:05:25;;;;;;;23.63;13.15;;;;;;;;;;5055636;28;20701;-66
2021/11/28 12:07:52;;;;;;;27.85;13.63;;;;;;;;;;5049380;28;20049;-65
2021/11/28 12:10:27;;;;;;;23.48;12.88;;;;;;;;;;5053100;28;20055;-65
2021/11/28 12:12:54;;;;;;;26.63;13.55;;;;;;;;;;5046313;28;20067;-66
2021/11/28 12:15:23;;;;;;;18.92;9.75;;;;;;;;;;5059815;28;20068;-65
2021/11/28 12:17:51;;;;;;;18.35;9.57;;;;;;;;;;5050200;28;20052;-65
2021/11/28 12:20:38;;;;;;;18.55;9.90;;;;;;;;;;5059164;28;20052;-66
2021/11/28 12:23:04;;;;;;;16.15;8.02;;;;;;;;;;5051073;28;20453;-65
2021/11/28 12:25:37;;;;;;;16.27;9.10;;;;;;;;;;5054262;28;20052;-65
2021/11/28 12:28:25;;;;;;;16.63;8.70;;;;;;;;;;5055365;28;20451;-66
2021/11/28 12:31:23;;;;;;;15.50;8.13;;;;;;;;;;5059133;28;20045;-65
2021/11/28 12:33:49;;;;;;;17.75;8.35;;;;;;;;;;5059846;28;20044;-65
2021/11/28 12:36:30;;;;;;;20.80;9.30;;;;;;;;;;5053671;28;20045;-65
2021/11/28 12:38:59;;;;;;;20.65;9.32;;;;;;;;;;5055083;28;20069;-65
2021/11/28 12:41:44;;;;;;;16.33;8.50;;;;;;;;;;5046335;28;20044;-65
2021/11/28 12:44:10;;;;;;;20.65;9.63;;;;;;;;;;5057849;28;20504;-66
2021/11/28 12:46:41;;;;;;;16.15;8.50;;;;;;;;;;5049908;28;20575;-65
2021/11/28 12:49:26;;;;;;;15.13;7.78;;;;;;;;;;5058096;28;20048;-66
2021/11/28 12:51:53;;;;;;;19.67;9.77;;;;;;;;;;5045872;28;20083;-65
2021/11/28 12:54:26;;;;;;;13.05;6.97;;;;;;;;;;5052753;28;20071;-66
2021/11/28 12:57:12;;;;;;;15.98;6.95;;;;;;;;;;5050139;28;20402;-66
2021/11/28 12:59:38;;;;;;;12.68;6.53;;;;;;;;;;5057765;28;20056;-65
2021/11/28 13:02:04;;;;;;;13.82;6.70;;;;;;;;;;5058594;28;20048;-65
2021/11/28 13:04:40;;;;;;;10.32;4.75;;;;;;;;;;5049448;28;20441;-66
2021/11/28 13:07:22;;;;;;;5.20;2.25;;;;;;;;;;5052428;28;20157;-67
2021/11/28 13:09:48;;;;;;;4.10;1.95;;;;;;;;;;5046689;28;20049;-66
2021/11/28 13:12:20;;;;;;;4.20;1.85;;;;;;;;;;5058063;28;20433;-67
2021/11/28 13:14:46;;;;;;;2.85;1.20;;;;;;;;;;5049391;28;20040;-66
2021/11/28 13:17:13;;;;;;;4.53;1.00;;;;;;;;;;5057598;28;20041;-66
2021/11/28 13:19:39;;;;;;;3.95;1.50;;;;;;;;;;5048148;28;20599;-66
2021/11/28 13:22:18;;;;;;;2.05;1.02;;;;;;;;;;5053510;28;20055;-66
2021/11/28 13:24:45;;;;;;;2.03;0.77;;;;;;;;;;5056995;28;20044;-66
2021/11/28 13:27:11;;;;;;;1.00;0.80;;;;;;;;;;5048275;28;20044;-66
2021/11/28 13:29:52;;;;;;;0.68;0.60;;;;;;;;;;5057184;28;20556;-67
2021/11/28 13:32:19;;;;;;;0.90;0.70;;;;;;;;;;5046497;28;20045;-66
2021/11/28 13:34:45;;;;;;;0.70;0.40;;;;;;;;;;5052407;28;20501;-66
2021/11/28 13:37:19;;;;;;;1.52;0.65;;;;;;;;;;5049057;28;20403;-65
2021/11/28 13:39:46;;;;;;;0.82;0.43;;;;;;;;;;5056866;28;20600;-65
2021/11/28 13:42:12;;;;;;;0.40;0.28;;;;;;;;;;5057109;28;20053;-66
2021/11/28 13:44:39;;;;;;;1.27;0.50;;;;;;;;;;5047206;28;20056;-66
2021/11/28 13:47:05;;;;;;;1.75;0.32;;;;;;;;;;5054129;28;20060;-66
2021/11/28 13:49:33;;;;;;;0.82;0.40;;;;;;;;;;5048726;28;20078;-66
2021/11/28 13:52:00;;;;;;;3.45;0.98;;;;;;;;;;5057086;28;20071;-66
2021/11/28 13:54:28;;;;;;;2.65;0.77;;;;;;;;;;5047586;28;20052;-66
2021/11/28 13:56:57;;;;;;;1.60;0.40;;;;;;;;;;5052904;28;20055;-65
2021/11/28 13:59:25;;;;;;;1.45;0.50;;;;;;;;;;5056114;28;20524;-66
2021/11/28 14:02:04;;;;;;;1.50;0.50;;;;;;;;;;5047706;28;20493;-66
2021/11/28 14:04:30;;;;;;;1.65;0.60;;;;;;;;;;5054463;28;20731;-66
2021/11/28 14:06:57;;;;;;;3.03;0.80;;;;;;;;;;5049882;28;20478;-67
2021/11/28 14:09:23;;;;;;;4.95;0.65;;;;;;;;;;5052197;28;20159;-66
2021/11/28 14:11:50;;;;;;;3.88;0.68;;;;;;;;;;5046404;28;20048;-65
2021/11/28 14:14:18;;;;;;;3.28;0.60;;;;;;;;;;5056459;28;20060;-67
2021/11/28 14:16:50;;;;;;;3.63;1.45;;;;;;;;;;5050303;28;20067;-66
2021/11/28 14:19:34;;;;;;;1.67;0.60;;;;;;;;;;5056297;28;20059;-66
2021/11/28 14:22:01;;;;;;;3.53;0.63;;;;;;;;;;5057207;28;20055;-65
2021/11/28 14:24:40;;;;;;;1.45;0.50;;;;;;;;;;5043815;28;20084;-65
2021/11/28 14:27:11;;;;;;;2.65;0.82;;;;;;;;;;5055818;28;20056;-66
2021/11/28 14:29:37;;;;;;;1.73;0.60;;;;;;;;;;5047587;28;20059;-66
2021/11/28 14:32:04;;;;;;;2.20;0.68;;;;;;;;;;5055014;28;20051;-65
2021/11/28 14:34:34;;;;;;;5.25;0.60;;;;;;;;;;5046377;28;20048;-65
2021/11/28 14:37:13;;;;;;;2.20;0.55;;;;;;;;;;5050690;28;20382;-65
2021/11/28 14:39:41;;;;;;;5.15;1.02;;;;;;;;;;5043349;28;20052;-66
2021/11/28 14:42:11;;;;;;;4.75;1.25;;;;;;;;;;5054387;28;20056;-65